sensor_id;sensor_type;location;lat;lon;timestamp;pressure;altitude;pressure_sealevel;temperature;humidity
14383;BME280;7275;50.328;8.720;2023-04-28T00:02:00;99584.44;;;18.31;33.09
14383;BME280;7275;50.328;8.720;2023-04-28T00:04:28;99582.75;;;18.30;32.99
14383;BME280;7275;50.328;8.720;2023-04-28T00:06:57;99581.88;;;18.30;33.11
14383;BME280;7275;50.328;8.720;2023-04-28T00:09:25;99572.16;;;18.29;32.99
14383;BME280;7275;50.328;8.720;2023-04-28T00:11:52;99568.63;;;18.28;33.11
14383;BME280;7275;50.328;8.720;2023-04-28T00:14:20;99569.56;;;18.27;33.06
14383;BME280;7275;50.328;8.720;2023-04-28T00:16:47;99559.72;;;18.28;33.10
14383;BME280;7275;50.328;8.720;2023-04-28T00:19:15;99552.56;;;18.28;33.02
14383;BME280;7275;50.328;8.720;2023-04-28T00:21:42;99558.84;;;18.27;33.26
14383;BME280;7275;50.328;8.720;2023-04-28T00:24:11;99539.19;;;18.28;33.29
14383;BME280;7275;50.328;8.720;2023-04-28T00:26:39;99542.72;;;18.29;33.29
14383;BME280;7275;50.328;8.720;2023-04-28T00:29:06;99530.41;;;18.26;33.44
14383;BME280;7275;50.328;8.720;2023-04-28T00:31:34;99526.97;;;18.24;33.31
14383;BME280;7275;50.328;8.720;2023-04-28T00:34:01;99524.63;;;18.20;33.44
14383;BME280;7275;50.328;8.720;2023-04-28T00:36:29;99519.72;;;18.14;33.52
14383;BME280;7275;50.328;8.720;2023-04-28T00:38:58;99522.59;;;18.11;33.72
14383;BME280;7275;50.328;8.720;2023-04-28T00:41:27;99518.44;;;18.07;33.63
14383;BME280;7275;50.328;8.720;2023-04-28T00:43:54;99517.69;;;18.05;33.58
14383;BME280;7275;50.328;8.720;2023-04-28T00:46:25;99529.38;;;18.04;33.62
14383;BME280;7275;50.328;8.720;2023-04-28T00:48:54;99526.69;;;18.04;33.82
14383;BME280;7275;50.328;8.720;2023-04-28T00:51:22;99526.78;;;18.02;33.80
14383;BME280;7275;50.328;8.720;2023-04-28T00:53:50;99521.41;;;18.02;33.87
14383;BME280;7275;50.328;8.720;2023-04-28T00:56:17;99515.13;;;18.03;33.60
14383;BME280;7275;50.328;8.720;2023-04-28T00:58:47;99508.81;;;18.04;33.86
14383;BME280;7275;50.328;8.720;2023-04-28T01:01:14;99504.22;;;18.06;33.88
14383;BME280;7275;50.328;8.720;2023-04-28T01:03:42;99503.13;;;18.09;33.91
14383;BME280;7275;50.328;8.720;2023-04-28T01:06:11;99501.31;;;18.09;33.93
14383;BME280;7275;50.328;8.720;2023-04-28T01:08:38;99494.34;;;18.07;34.04
14383;BME280;7275;50.328;8.720;2023-04-28T01:11:07;99489.22;;;18.04;34.01
14383;BME280;7275;50.328;8.720;2023-04-28T01:13:35;99485.81;;;18.02;34.02
14383;BME280;7275;50.328;8.720;2023-04-28T01:16:05;99482.28;;;18.01;34.06
14383;BME280;7275;50.328;8.720;2023-04-28T01:18:33;99478.00;;;17.99;34.31
14383;BME280;7275;50.328;8.720;2023-04-28T01:21:01;99475.31;;;17.99;34.52
14383;BME280;7275;50.328;8.720;2023-04-28T01:23:29;99476.19;;;17.99;34.64
14383;BME280;7275;50.328;8.720;2023-04-28T01:25:58;99476.06;;;18.01;34.72
14383;BME280;7275;50.328;8.720;2023-04-28T01:28:26;99476.19;;;17.99;34.96
14383;BME280;7275;50.328;8.720;2023-04-28T01:30:54;99475.31;;;17.99;34.94
14383;BME280;7275;50.328;8.720;2023-04-28T01:33:22;99471.91;;;17.97;34.71
14383;BME280;7275;50.328;8.720;2023-04-28T01:35:49;99472.97;;;17.94;34.96
14383;BME280;7275;50.328;8.720;2023-04-28T01:38:16;99465.81;;;17.95;35.31
14383;BME280;7275;50.328;8.720;2023-04-28T01:40:44;99468.34;;;17.96;35.16
14383;BME280;7275;50.328;8.720;2023-04-28T01:43:13;99470.94;;;17.98;35.45
14383;BME280;7275;50.328;8.720;2023-04-28T01:45:40;99476.19;;;17.99;35.25
14383;BME280;7275;50.328;8.720;2023-04-28T01:48:08;99451.25;;;17.99;35.37
14383;BME280;7275;50.328;8.720;2023-04-28T01:50:35;99454.78;;;17.99;35.64
14383;BME280;7275;50.328;8.720;2023-04-28T01:53:03;99452.84;;;18.01;35.55
14383;BME280;7275;50.328;8.720;2023-04-28T01:55:30;99442.16;;;18.01;35.93
14383;BME280;7275;50.328;8.720;2023-04-28T01:57:57;99446.53;;;18.02;35.76
14383;BME280;7275;50.328;8.720;2023-04-28T02:00:26;99447.38;;;18.03;36.23
14383;BME280;7275;50.328;8.720;2023-04-28T02:02:54;99442.03;;;18.03;36.24
14383;BME280;7275;50.328;8.720;2023-04-28T02:05:21;99441.09;;;18.04;36.14
14383;BME280;7275;50.328;8.720;2023-04-28T02:07:49;99443.84;;;18.02;36.14
14383;BME280;7275;50.328;8.720;2023-04-28T02:10:16;99452.00;;;18.01;36.44
14383;BME280;7275;50.328;8.720;2023-04-28T02:12:44;99445.91;;;17.99;36.66
14383;BME280;7275;50.328;8.720;2023-04-28T02:15:11;99446.00;;;17.97;36.39
14383;BME280;7275;50.328;8.720;2023-04-28T02:17:40;99438.19;;;17.94;36.65
14383;BME280;7275;50.328;8.720;2023-04-28T02:20:09;99437.38;;;17.94;36.65
14383;BME280;7275;50.328;8.720;2023-04-28T02:22:36;99445.59;;;17.91;36.67
14383;BME280;7275;50.328;8.720;2023-04-28T02:25:04;99446.47;;;17.91;36.79
14383;BME280;7275;50.328;8.720;2023-04-28T02:27:34;99440.38;;;17.89;37.02
14383;BME280;7275;50.328;8.720;2023-04-28T02:30:03;99436.94;;;17.87;36.75
14383;BME280;7275;50.328;8.720;2023-04-28T02:32:30;99430.72;;;17.87;37.01
14383;BME280;7275;50.328;8.720;2023-04-28T02:34:59;99433.41;;;17.87;37.35
14383;BME280;7275;50.328;8.720;2023-04-28T02:37:27;99430.72;;;17.87;37.34
14383;BME280;7275;50.328;8.720;2023-04-28T02:39:54;99424.63;;;17.85;37.40
14383;BME280;7275;50.328;8.720;2023-04-28T02:42:22;99428.19;;;17.85;37.37
14383;BME280;7275;50.328;8.720;2023-04-28T02:44:49;99425.69;;;17.82;37.41
14383;BME280;7275;50.328;8.720;2023-04-28T02:47:17;99432.03;;;17.81;37.72
14383;BME280;7275;50.328;8.720;2023-04-28T02:49:44;99435.66;;;17.80;37.61
14383;BME280;7275;50.328;8.720;2023-04-28T02:52:13;99427.88;;;17.77;38.06
14383;BME280;7275;50.328;8.720;2023-04-28T02:54:40;99424.44;;;17.75;38.23
14383;BME280;7275;50.328;8.720;2023-04-28T02:57:08;99413.22;;;17.70;38.19
14383;BME280;7275;50.328;8.720;2023-04-28T02:59:35;99418.00;;;17.65;38.29
14383;BME280;7275;50.328;8.720;2023-04-28T03:02:02;99419.31;;;17.60;38.54
14383;BME280;7275;50.328;8.720;2023-04-28T03:04:30;99416.22;;;17.53;38.53
14383;BME280;7275;50.328;8.720;2023-04-28T03:06:57;99419.00;;;17.51;38.75
14383;BME280;7275;50.328;8.720;2023-04-28T03:09:26;99410.97;;;17.51;38.77
14383;BME280;7275;50.328;8.720;2023-04-28T03:11:54;99405.75;;;17.50;38.88
14383;BME280;7275;50.328;8.720;2023-04-28T03:14:21;99406.66;;;17.49;38.86
14383;BME280;7275;50.328;8.720;2023-04-28T03:16:49;99400.47;;;17.48;39.03
14383;BME280;7275;50.328;8.720;2023-04-28T03:19:16;99398.84;;;17.46;39.23
14383;BME280;7275;50.328;8.720;2023-04-28T03:21:44;99404.44;;;17.43;39.08
14383;BME280;7275;50.328;8.720;2023-04-28T03:24:12;99408.16;;;17.40;39.41
14383;BME280;7275;50.328;8.720;2023-04-28T03:26:42;99398.53;;;17.38;39.51
14383;BME280;7275;50.328;8.720;2023-04-28T03:29:09;99390.63;;;17.36;39.40
14383;BME280;7275;50.328;8.720;2023-04-28T03:31:37;99382.63;;;17.36;39.22
14383;BME280;7275;50.328;8.720;2023-04-28T03:34:05;99377.16;;;17.38;39.34
14383;BME280;7275;50.328;8.720;2023-04-28T03:36:32;99367.88;;;17.43;39.57
14383;BME280;7275;50.328;8.720;2023-04-28T03:39:00;99360.50;;;17.47;39.28
14383;BME280;7275;50.328;8.720;2023-04-28T03:41:27;99363.16;;;17.47;39.08
14383;BME280;7275;50.328;8.720;2023-04-28T03:43:56;99351.31;;;17.51;39.30
14383;BME280;7275;50.328;8.720;2023-04-28T03:46:24;99357.28;;;17.54;39.39
14383;BME280;7275;50.328;8.720;2023-04-28T03:48:51;99362.31;;;17.59;39.33
14383;BME280;7275;50.328;8.720;2023-04-28T03:51:19;99364.91;;;17.61;39.62
14383;BME280;7275;50.328;8.720;2023-04-28T03:53:47;99363.94;;;17.62;39.60
14383;BME280;7275;50.328;8.720;2023-04-28T03:56:14;99368.31;;;17.63;39.59
14383;BME280;7275;50.328;8.720;2023-04-28T03:58:42;99368.31;;;17.63;39.71
14383;BME280;7275;50.328;8.720;2023-04-28T04:01:11;99371.75;;;17.65;39.83
14383;BME280;7275;50.328;8.720;2023-04-28T04:03:38;99361.03;;;17.65;39.83
14383;BME280;7275;50.328;8.720;2023-04-28T04:06:07;99353.78;;;17.67;40.02
14383;BME280;7275;50.328;8.720;2023-04-28T04:08:34;99361.66;;;17.68;40.24
14383;BME280;7275;50.328;8.720;2023-04-28T04:11:02;99361.56;;;17.70;39.97
14383;BME280;7275;50.328;8.720;2023-04-28T04:13:29;99353.41;;;17.71;40.20
14383;BME280;7275;50.328;8.720;2023-04-28T04:15:57;99339.22;;;17.71;40.08
14383;BME280;7275;50.328;8.720;2023-04-28T04:18:26;99342.09;;;17.68;40.37
14383;BME280;7275;50.328;8.720;2023-04-28T04:20:53;99337.81;;;17.65;40.33
14383;BME280;7275;50.328;8.720;2023-04-28T04:23:22;99337.00;;;17.65;40.33
14383;BME280;7275;50.328;8.720;2023-04-28T04:25:50;99331.72;;;17.63;40.46
14383;BME280;7275;50.328;8.720;2023-04-28T04:28:17;99334.53;;;17.62;40.27
14383;BME280;7275;50.328;8.720;2023-04-28T04:30:45;99343.41;;;17.62;40.47
14383;BME280;7275;50.328;8.720;2023-04-28T04:33:13;99356.03;;;17.60;40.09
14383;BME280;7275;50.328;8.720;2023-04-28T04:35:41;99354.53;;;17.56;40.06
14383;BME280;7275;50.328;8.720;2023-04-28T04:38:09;99371.53;;;17.55;39.99
14383;BME280;7275;50.328;8.720;2023-04-28T04:40:37;99366.28;;;17.53;40.04
14383;BME280;7275;50.328;8.720;2023-04-28T04:43:04;99363.50;;;17.55;40.08
14383;BME280;7275;50.328;8.720;2023-04-28T04:45:32;99379.34;;;17.58;40.14
14383;BME280;7275;50.328;8.720;2023-04-28T04:47:59;99369.38;;;17.60;40.22
14383;BME280;7275;50.328;8.720;2023-04-28T04:50:27;99366.47;;;17.63;40.04
14383;BME280;7275;50.328;8.720;2023-04-28T04:52:56;99372.56;;;17.65;40.04
14383;BME280;7275;50.328;8.720;2023-04-28T04:55:23;99373.56;;;17.64;40.13
14383;BME280;7275;50.328;8.720;2023-04-28T04:57:51;99367.34;;;17.64;40.25
14383;BME280;7275;50.328;8.720;2023-04-28T05:00:18;99366.47;;;17.63;40.35
14383;BME280;7275;50.328;8.720;2023-04-28T05:02:46;99371.00;;;17.63;40.53
14383;BME280;7275;50.328;8.720;2023-04-28T05:05:14;99373.66;;;17.63;40.55
14383;BME280;7275;50.328;8.720;2023-04-28T05:07:48;99376.34;;;17.63;40.42
14383;BME280;7275;50.328;8.720;2023-04-28T05:10:17;99369.16;;;17.63;40.49
14383;BME280;7275;50.328;8.720;2023-04-28T05:12:44;99359.44;;;17.62;40.64
14383;BME280;7275;50.328;8.720;2023-04-28T05:15:14;99357.72;;;17.61;40.54
14383;BME280;7275;50.328;8.720;2023-04-28T05:17:42;99359.44;;;17.62;40.50
14383;BME280;7275;50.328;8.720;2023-04-28T05:20:10;99355.78;;;17.63;40.70
14383;BME280;7275;50.328;8.720;2023-04-28T05:22:38;99357.50;;;17.64;40.70
14383;BME280;7275;50.328;8.720;2023-04-28T05:25:06;99364.66;;;17.64;40.60
14383;BME280;7275;50.328;8.720;2023-04-28T05:27:35;99365.53;;;17.64;40.65
14383;BME280;7275;50.328;8.720;2023-04-28T05:30:06;99355.69;;;17.65;40.56
14383;BME280;7275;50.328;8.720;2023-04-28T05:32:34;99356.75;;;17.62;40.39
14383;BME280;7275;50.328;8.720;2023-04-28T05:35:02;99353.22;;;17.62;40.48
14383;BME280;7275;50.328;8.720;2023-04-28T05:37:29;99350.56;;;17.62;40.77
14383;BME280;7275;50.328;8.720;2023-04-28T05:39:57;99344.47;;;17.60;40.94
14383;BME280;7275;50.328;8.720;2023-04-28T05:42:24;99352.16;;;17.64;40.89
14383;BME280;7275;50.328;8.720;2023-04-28T05:44:53;99352.91;;;17.66;41.08
14383;BME280;7275;50.328;8.720;2023-04-28T05:47:20;99356.44;;;17.67;41.17
14383;BME280;7275;50.328;8.720;2023-04-28T05:49:48;99364.47;;;17.67;41.10
14383;BME280;7275;50.328;8.720;2023-04-28T05:52:15;99364.34;;;17.68;41.34
14383;BME280;7275;50.328;8.720;2023-04-28T05:54:43;99373.00;;;17.72;41.23
14383;BME280;7275;50.328;8.720;2023-04-28T05:57:11;99370.97;;;17.75;41.34
14383;BME280;7275;50.328;8.720;2023-04-28T05:59:38;99359.91;;;17.80;41.43
14383;BME280;7275;50.328;8.720;2023-04-28T06:02:07;99351.81;;;17.81;41.49
14383;BME280;7275;50.328;8.720;2023-04-28T06:04:35;99363.56;;;17.79;41.45
14383;BME280;7275;50.328;8.720;2023-04-28T06:07:02;99365.50;;;17.77;41.45
14383;BME280;7275;50.328;8.720;2023-04-28T06:09:30;99373.84;;;17.72;41.36
14383;BME280;7275;50.328;8.720;2023-04-28T06:11:57;99369.44;;;17.71;41.40
14383;BME280;7275;50.328;8.720;2023-04-28T06:14:25;99375.78;;;17.70;41.68
14383;BME280;7275;50.328;8.720;2023-04-28T06:16:52;99379.31;;;17.71;41.49
14383;BME280;7275;50.328;8.720;2023-04-28T06:19:21;99381.34;;;17.67;41.58
14383;BME280;7275;50.328;8.720;2023-04-28T06:21:49;99380.72;;;17.64;41.70
14383;BME280;7275;50.328;8.720;2023-04-28T06:24:17;99377.28;;;17.62;41.70
14383;BME280;7275;50.328;8.720;2023-04-28T06:26:45;99385.44;;;17.60;41.82
14383;BME280;7275;50.328;8.720;2023-04-28T06:29:12;99387.34;;;17.58;41.77
14383;BME280;7275;50.328;8.720;2023-04-28T06:31:40;99388.31;;;17.57;41.83
14383;BME280;7275;50.328;8.720;2023-04-28T06:34:07;99386.59;;;17.56;41.86
14383;BME280;7275;50.328;8.720;2023-04-28T06:36:36;99382.09;;;17.56;41.96
14383;BME280;7275;50.328;8.720;2023-04-28T06:39:04;99387.25;;;17.60;41.83
14383;BME280;7275;50.328;8.720;2023-04-28T06:41:31;99386.06;;;17.64;41.80
14383;BME280;7275;50.328;8.720;2023-04-28T06:43:58;99377.81;;;17.67;41.99
14383;BME280;7275;50.328;8.720;2023-04-28T06:46:26;99371.38;;;17.69;41.96
14383;BME280;7275;50.328;8.720;2023-04-28T06:48:54;99380.28;;;17.70;42.01
14383;BME280;7275;50.328;8.720;2023-04-28T06:51:21;99371.31;;;17.71;42.00
14383;BME280;7275;50.328;8.720;2023-04-28T06:53:50;99373.97;;;17.71;42.12
14383;BME280;7275;50.328;8.720;2023-04-28T06:56:18;99369.69;;;17.68;41.88
14383;BME280;7275;50.328;8.720;2023-04-28T06:58:46;99364.56;;;17.65;42.15
14383;BME280;7275;50.328;8.720;2023-04-28T07:01:13;99371.63;;;17.66;42.23
14383;BME280;7275;50.328;8.720;2023-04-28T07:03:42;99364.47;;;17.67;42.10
14383;BME280;7275;50.328;8.720;2023-04-28T07:06:09;99366.28;;;17.66;42.46
14383;BME280;7275;50.328;8.720;2023-04-28T07:08:38;99353.84;;;17.65;42.54
14383;BME280;7275;50.328;8.720;2023-04-28T07:11:07;99350.00;;;17.69;42.44
14383;BME280;7275;50.328;8.720;2023-04-28T07:13:34;99349.59;;;17.75;42.57
14383;BME280;7275;50.328;8.720;2023-04-28T07:16:03;99347.28;;;17.82;42.55
14383;BME280;7275;50.328;8.720;2023-04-28T07:18:30;99348.44;;;17.90;42.36
14383;BME280;7275;50.328;8.720;2023-04-28T07:20:58;99353.34;;;17.96;42.49
14383;BME280;7275;50.328;8.720;2023-04-28T07:23:27;99352.16;;;18.00;42.30
14383;BME280;7275;50.328;8.720;2023-04-28T07:25:56;99342.31;;;18.01;42.39
14383;BME280;7275;50.328;8.720;2023-04-28T07:28:25;99339.75;;;17.99;42.44
14383;BME280;7275;50.328;8.720;2023-04-28T07:30:53;99325.41;;;18.00;42.42
14383;BME280;7275;50.328;8.720;2023-04-28T07:33:20;99336.97;;;18.01;42.37
14383;BME280;7275;50.328;8.720;2023-04-28T07:35:48;99325.19;;;18.03;42.48
14383;BME280;7275;50.328;8.720;2023-04-28T07:38:18;99310.00;;;18.04;42.52
14383;BME280;7275;50.328;8.720;2023-04-28T07:40:46;99318.78;;;18.06;42.42
14383;BME280;7275;50.328;8.720;2023-04-28T07:43:14;99307.81;;;18.09;42.74
14383;BME280;7275;50.328;8.720;2023-04-28T07:45:43;99290.09;;;18.08;42.78
14383;BME280;7275;50.328;8.720;2023-04-28T07:48:14;99292.34;;;18.01;42.99
14383;BME280;7275;50.328;8.720;2023-04-28T07:50:41;99306.41;;;17.92;42.84
14383;BME280;7275;50.328;8.720;2023-04-28T07:53:09;99305.16;;;17.85;43.22
14383;BME280;7275;50.328;8.720;2023-04-28T07:55:37;99309.03;;;17.81;43.05
14383;BME280;7275;50.328;8.720;2023-04-28T07:58:07;99314.72;;;17.77;43.29
14383;BME280;7275;50.328;8.720;2023-04-28T08:00:34;99329.03;;;17.76;43.40
14383;BME280;7275;50.328;8.720;2023-04-28T08:03:05;99324.53;;;17.76;43.55
14383;BME280;7275;50.328;8.720;2023-04-28T08:05:33;99326.13;;;17.79;43.42
14383;BME280;7275;50.328;8.720;2023-04-28T08:08:01;99334.03;;;17.80;43.58
14383;BME280;7275;50.328;8.720;2023-04-28T08:10:28;99333.91;;;17.82;43.52
14383;BME280;7275;50.328;8.720;2023-04-28T08:12:56;99338.19;;;17.84;43.48
14383;BME280;7275;50.328;8.720;2023-04-28T08:15:23;99331.91;;;17.85;43.77
14383;BME280;7275;50.328;8.720;2023-04-28T08:17:52;99334.34;;;17.88;43.74
14383;BME280;7275;50.328;8.720;2023-04-28T08:20:21;99336.91;;;17.90;43.62
14383;BME280;7275;50.328;8.720;2023-04-28T08:22:50;99342.16;;;17.91;43.69
14383;BME280;7275;50.328;8.720;2023-04-28T08:25:17;99353.59;;;17.93;43.74
14383;BME280;7275;50.328;8.720;2023-04-28T08:27:45;99338.41;;;17.94;43.55
14383;BME280;7275;50.328;8.720;2023-04-28T08:30:12;99338.28;;;17.95;43.75
14383;BME280;7275;50.328;8.720;2023-04-28T08:32:40;99339.53;;;18.02;43.72
14383;BME280;7275;50.328;8.720;2023-04-28T08:35:08;99338.25;;;18.08;43.94
14383;BME280;7275;50.328;8.720;2023-04-28T08:37:37;99344.94;;;18.13;43.82
14383;BME280;7275;50.328;8.720;2023-04-28T08:40:06;99345.47;;;18.18;43.76
14383;BME280;7275;50.328;8.720;2023-04-28T08:42:36;99334.78;;;18.18;43.83
14383;BME280;7275;50.328;8.720;2023-04-28T08:45:05;99341.59;;;18.22;44.02
14383;BME280;7275;50.328;8.720;2023-04-28T08:47:35;99343.66;;;18.19;43.89
14383;BME280;7275;50.328;8.720;2023-04-28T08:50:05;99340.78;;;18.09;44.13
14383;BME280;7275;50.328;8.720;2023-04-28T08:52:33;99342.53;;;18.10;44.21
14383;BME280;7275;50.328;8.720;2023-04-28T08:55:05;99342.72;;;18.07;44.38
14383;BME280;7275;50.328;8.720;2023-04-28T08:57:37;99343.72;;;18.06;44.31
14383;BME280;7275;50.328;8.720;2023-04-28T09:00:07;99334.81;;;18.06;44.51
14383;BME280;7275;50.328;8.720;2023-04-28T09:02:35;99339.94;;;18.09;44.82
14383;BME280;7275;50.328;8.720;2023-04-28T09:05:06;99346.66;;;18.14;44.71
14383;BME280;7275;50.328;8.720;2023-04-28T09:07:34;99344.72;;;18.16;44.75
14383;BME280;7275;50.328;8.720;2023-04-28T09:10:24;99348.47;;;18.14;44.62
14383;BME280;7275;50.328;8.720;2023-04-28T09:12:53;99352.03;;;18.14;44.78
14383;BME280;7275;50.328;8.720;2023-04-28T09:15:28;99351.28;;;18.12;45.01
14383;BME280;7275;50.328;8.720;2023-04-28T09:17:59;99346.13;;;18.09;44.97
14383;BME280;7275;50.328;8.720;2023-04-28T09:20:29;99351.16;;;18.14;45.00
14383;BME280;7275;50.328;8.720;2023-04-28T09:23:12;99352.75;;;18.16;45.11
14383;BME280;7275;50.328;8.720;2023-04-28T09:25:54;99347.06;;;18.21;45.26
14383;BME280;7275;50.328;8.720;2023-04-28T09:28:22;99345.88;;;18.25;45.18
14383;BME280;7275;50.328;8.720;2023-04-28T09:30:49;99332.13;;;18.29;45.18
14383;BME280;7275;50.328;8.720;2023-04-28T09:33:17;99339.72;;;18.35;45.19
14383;BME280;7275;50.328;8.720;2023-04-28T09:35:45;99342.78;;;18.42;45.25
14383;BME280;7275;50.328;8.720;2023-04-28T09:38:13;99342.25;;;18.50;45.31
14383;BME280;7275;50.328;8.720;2023-04-28T09:40:57;99340.81;;;18.57;45.28
14383;BME280;7275;50.328;8.720;2023-04-28T09:43:26;99335.00;;;18.63;45.25
14383;BME280;7275;50.328;8.720;2023-04-28T09:45:56;99333.06;;;18.65;45.17
14383;BME280;7275;50.328;8.720;2023-04-28T09:48:31;99340.13;;;18.66;45.27
14383;BME280;7275;50.328;8.720;2023-04-28T09:51:00;99338.16;;;18.68;45.30
14383;BME280;7275;50.328;8.720;2023-04-28T09:53:29;99343.41;;;18.69;45.26
14383;BME280;7275;50.328;8.720;2023-04-28T09:56:00;99336.09;;;18.71;45.30
14383;BME280;7275;50.328;8.720;2023-04-28T09:58:29;99341.47;;;18.71;45.26
14383;BME280;7275;50.328;8.720;2023-04-28T10:00:59;99339.53;;;18.73;45.42
14383;BME280;7275;50.328;8.720;2023-04-28T10:03:29;99339.16;;;18.78;45.42
14383;BME280;7275;50.328;8.720;2023-04-28T10:05:58;99336.75;;;18.86;45.47
14383;BME280;7275;50.328;8.720;2023-04-28T10:08:26;99333.25;;;18.96;45.56
14383;BME280;7275;50.328;8.720;2023-04-28T10:10:54;99335.97;;;19.07;45.47
14383;BME280;7275;50.328;8.720;2023-04-28T10:13:24;99332.22;;;19.21;45.64
14383;BME280;7275;50.328;8.720;2023-04-28T10:15:52;99333.59;;;19.38;45.61
14383;BME280;7275;50.328;8.720;2023-04-28T10:18:21;99336.63;;;19.55;45.48
14383;BME280;7275;50.328;8.720;2023-04-28T10:20:54;99322.97;;;19.69;45.50
14383;BME280;7275;50.328;8.720;2023-04-28T10:23:57;99317.81;;;19.88;45.26
14383;BME280;7275;50.328;8.720;2023-04-28T10:26:35;99319.97;;;20.17;45.21
14383;BME280;7275;50.328;8.720;2023-04-28T10:29:24;99318.47;;;20.35;44.96
14383;BME280;7275;50.328;8.720;2023-04-28T10:32:17;99321.69;;;20.49;44.80
14383;BME280;7275;50.328;8.720;2023-04-28T10:34:46;99316.41;;;20.59;44.76
14383;BME280;7275;50.328;8.720;2023-04-28T10:37:14;99300.38;;;20.68;44.55
14383;BME280;7275;50.328;8.720;2023-04-28T10:42:52;99292.31;;;20.89;44.38
14383;BME280;7275;50.328;8.720;2023-04-28T10:45:58;99290.03;;;21.05;44.36
14383;BME280;7275;50.328;8.720;2023-04-28T10:51:31;99284.84;;;21.43;44.47
14383;BME280;7275;50.328;8.720;2023-04-28T10:54:15;99275.75;;;21.75;44.54
14383;BME280;7275;50.328;8.720;2023-04-28T10:57:18;99264.66;;;21.98;44.01
14383;BME280;7275;50.328;8.720;2023-04-28T10:59:47;99265.94;;;22.23;43.57
14383;BME280;7275;50.328;8.720;2023-04-28T11:02:39;99263.97;;;22.44;43.63
14383;BME280;7275;50.328;8.720;2023-04-28T11:05:12;99266.81;;;22.71;43.16
14383;BME280;7275;50.328;8.720;2023-04-28T11:07:40;99258.38;;;22.93;42.84
14383;BME280;7275;50.328;8.720;2023-04-28T11:10:08;99263.03;;;23.11;42.80
14383;BME280;7275;50.328;8.720;2023-04-28T11:12:35;99271.38;;;23.17;42.80
14383;BME280;7275;50.328;8.720;2023-04-28T11:15:11;99269.13;;;23.13;42.79
14383;BME280;7275;50.328;8.720;2023-04-28T11:17:40;99279.47;;;23.08;42.64
14383;BME280;7275;50.328;8.720;2023-04-28T11:20:11;99276.41;;;22.93;42.70
14383;BME280;7275;50.328;8.720;2023-04-28T11:22:40;99276.00;;;22.78;42.94
14383;BME280;7275;50.328;8.720;2023-04-28T11:25:08;99265.41;;;22.67;42.97
14383;BME280;7275;50.328;8.720;2023-04-28T11:27:35;99268.63;;;22.61;42.88
14383;BME280;7275;50.328;8.720;2023-04-28T11:30:18;99271.47;;;22.60;43.08
14383;BME280;7275;50.328;8.720;2023-04-28T11:32:49;99271.59;;;22.68;43.26
14383;BME280;7275;50.328;8.720;2023-04-28T11:35:17;99280.84;;;22.65;43.32
14383;BME280;7275;50.328;8.720;2023-04-28T11:37:45;99278.13;;;22.56;43.07
14383;BME280;7275;50.328;8.720;2023-04-28T11:40:13;99276.72;;;22.42;42.79
14383;BME280;7275;50.328;8.720;2023-04-28T11:42:46;99279.69;;;22.30;43.39
14383;BME280;7275;50.328;8.720;2023-04-28T11:45:14;99273.56;;;22.18;43.18
14383;BME280;7275;50.328;8.720;2023-04-28T11:47:41;99276.94;;;22.01;43.59
14383;BME280;7275;50.328;8.720;2023-04-28T11:50:10;99272.84;;;21.87;43.74
14383;BME280;7275;50.328;8.720;2023-04-28T11:52:47;99268.22;;;21.78;43.68
14383;BME280;7275;50.328;8.720;2023-04-28T11:55:18;99264.84;;;21.76;44.10
14383;BME280;7275;50.328;8.720;2023-04-28T11:57:45;99269.25;;;21.77;44.15
14383;BME280;7275;50.328;8.720;2023-04-28T12:00:13;99262.03;;;21.78;44.43
14383;BME280;7275;50.328;8.720;2023-04-28T12:02:44;99256.53;;;21.89;44.58
14383;BME280;7275;50.328;8.720;2023-04-28T12:05:14;99242.41;;;22.25;44.65
14383;BME280;7275;50.328;8.720;2023-04-28T12:07:42;99249.94;;;22.69;44.54
14383;BME280;7275;50.328;8.720;2023-04-28T12:10:11;99245.81;;;23.58;44.22
14383;BME280;7275;50.328;8.720;2023-04-28T12:12:41;99238.28;;;24.41;43.29
14383;BME280;7275;50.328;8.720;2023-04-28T12:15:19;99234.25;;;25.40;42.31
14383;BME280;7275;50.328;8.720;2023-04-28T12:17:48;99235.25;;;26.63;41.05
14383;BME280;7275;50.328;8.720;2023-04-28T12:20:35;99231.72;;;27.57;39.76
14383;BME280;7275;50.328;8.720;2023-04-28T12:23:04;99227.19;;;28.34;39.17
14383;BME280;7275;50.328;8.720;2023-04-28T12:25:32;99239.22;;;28.85;38.34
14383;BME280;7275;50.328;8.720;2023-04-28T12:28:08;99226.28;;;28.87;37.32
14383;BME280;7275;50.328;8.720;2023-04-28T12:30:36;99218.97;;;28.65;37.60
14383;BME280;7275;50.328;8.720;2023-04-28T12:33:21;99225.09;;;28.67;37.63
14383;BME280;7275;50.328;8.720;2023-04-28T12:35:51;99223.88;;;28.46;37.01
14383;BME280;7275;50.328;8.720;2023-04-28T12:38:20;99237.81;;;27.98;37.39
14383;BME280;7275;50.328;8.720;2023-04-28T12:40:47;99232.41;;;27.43;37.77
14383;BME280;7275;50.328;8.720;2023-04-28T12:43:15;99238.47;;;26.90;38.25
14383;BME280;7275;50.328;8.720;2023-04-28T12:45:42;99241.19;;;26.50;38.90
14383;BME280;7275;50.328;8.720;2023-04-28T12:48:10;99229.13;;;26.21;39.37
14383;BME280;7275;50.328;8.720;2023-04-28T12:50:37;99230.75;;;25.97;39.59
14383;BME280;7275;50.328;8.720;2023-04-28T12:53:06;99231.06;;;25.86;40.08
14383;BME280;7275;50.328;8.720;2023-04-28T12:55:34;99241.06;;;25.86;40.26
14383;BME280;7275;50.328;8.720;2023-04-28T12:58:01;99241.09;;;26.02;40.41
14383;BME280;7275;50.328;8.720;2023-04-28T13:00:29;99228.81;;;26.40;40.22
14383;BME280;7275;50.328;8.720;2023-04-28T13:02:56;99223.19;;;26.98;39.82
14383;BME280;7275;50.328;8.720;2023-04-28T13:05:24;99215.56;;;27.56;39.04
14383;BME280;7275;50.328;8.720;2023-04-28T13:07:52;99221.63;;;28.27;38.75
14383;BME280;7275;50.328;8.720;2023-04-28T13:10:21;99212.41;;;28.59;38.09
14383;BME280;7275;50.328;8.720;2023-04-28T13:12:48;99222.72;;;29.01;37.44
14383;BME280;7275;50.328;8.720;2023-04-28T13:15:16;99217.78;;;29.34;37.26
14383;BME280;7275;50.328;8.720;2023-04-28T13:17:46;99215.25;;;29.61;36.55
14383;BME280;7275;50.328;8.720;2023-04-28T13:20:14;99226.13;;;29.61;36.54
14383;BME280;7275;50.328;8.720;2023-04-28T13:22:42;99214.94;;;29.56;36.29
14383;BME280;7275;50.328;8.720;2023-04-28T13:25:10;99193.09;;;29.50;36.14
14383;BME280;7275;50.328;8.720;2023-04-28T13:27:39;99193.75;;;29.37;36.31